Terminal Aerodrome Forecast
Issued by NWS Albany, NY

Home | Current Version | Previous Version | Text Only | Print | Product List | Glossary On
Versions: 1 2 3 4 5 6 7 8 9 10 11 12 13 14 15 16 17 18
530
FTUS41 KALY 222340
TAFPOU
TAF
KPOU 222340Z 2300/2324 15004KT P6SM BKN120 BKN250
     FM230600 VRB03KT 6SM BR SCT070 OVC120
     FM231300 18008KT P6SM BKN060 OVC100 PROB30 2314/2318 4SM -TSRA
      BR OVC025CB
     FM231800 20010G16KT P6SM VCSH BKN040 BKN100=

USA.gov is the U.S. government's official web portal to all federal, state and local government web resources and services.